Aviation Digital Data Service (ADDS)

Output produced by METARs form (2011 UTC 18 January 2017)
found at http://aviationweather.gov/adds/metars/
 
KBTV 181735Z 1818/1918 19008KT P6SM OVC035 
     FM190000 18006KT P6SM VCSH OVC025 
     FM190600 VRB03KT 2SM BR OVC008 
     FM191400 VRB03KT 5SM BR OVC015